Terminal Aerodrome Forecast
Issued by NWS Hastings, NE

Home | Current Version | Previous Version | Text Only | Print | Product List | Glossary On
Versions: 1 2 3 4 5 6 7 8 9 10 11 12 13 14 15 16 17 18 19 20
633
FTUS45 KGID 272332
TAFEAR
TAF
KEAR 272332Z 2800/2824 11006KT P6SM SCT150
     FM280700 13006KT P6SM SCT015
     FM280900 12006KT 2SM BR BKN015
     FM281100 11006KT 1 1/2SM BR VCSH BKN008
     FM281500 11009KT 5SM BR VCSH OVC010
     FM281800 10012KT P6SM -RA OVC015
      AMD LTD TO CLD VIS AND WIND=

USA.gov is the U.S. government's official web portal to all federal, state and local government web resources and services.